• Join FlightAware (Why Join?)
  • Login
  • US Flag 
05:25PM EST


 

Airport Tracker/Info


-or-


 

Live Flight TrackerFlight Track Log ✈ AAL1459 ✈ 05-May-2013 ✈ KORD - KRNO

Flight Track Log - Related Links

Times and Time Zones

All times are in EDT time to prevent confusion due to time zone crossing. See the AAL1459 flight status page for this flight to view local times or setup timezone preferences in your user account.

Time Position Orientation Groundspeed Altitude Reporting Facility
EDT Latitude Longitude Course Direction KTS MPH feet Rate Location/Type
06:21PM 42.0344 -87.9792 270° West 197 227 36,000  Level Chicago Center
06:23PM 42.0474 -88.1948 270° West  Level Estimated
06:23PM 42.1164 -88.1222 270° West 289 333 7,100  Level Chicago Center
06:24PM 42.1472 -88.2497 288° West 300 345 10,300 2,700 Climbing Chicago Center
06:25PM 41.9668 -88.6773 270° West  Level FlightAware Approximate
06:25PM 42.1464 -88.3589 269° West 302 348 12,800  Level Chicago Center
06:26PM 41.9668 -88.8328 270° West  Level FlightAware Approximate
06:26PM 42.1133 -88.4700 248° West 315 362 15,300  Level Chicago Center
06:27PM 42.1011 -88.6053 263° West 369 425 16,500 1,500 Climbing Chicago Center
06:28PM 42.1003 -88.7600 270° West 410 472 18,500 2,100 Climbing Chicago Center
06:29PM 42.0975 -88.9408 269° West 424 488 20,900 2,100 Climbing Chicago Center
06:30PM 42.0942 -89.1061 268° West 437 503 22,900 1,800 Climbing Chicago Center
06:31PM 42.0928 -89.2778 269° West 451 519 24,700 1,920 Climbing Chicago Center
06:32PM 42.0881 -89.4775 268° West 455 524 26,900 1,740 Climbing Chicago Center
06:34PM 42.0869 -89.6492 270° West 459 528 28,400 1,500 Climbing Chicago Center
06:35PM 42.0856 -89.8228 269° West 461 531 30,000 1,680 Climbing Chicago Center
06:36PM 42.0883 -90.0033 271° West 457 526 31,900 1,620 Climbing Chicago Center
06:37PM 42.0961 -90.1692 274° West 450 518 33,400 1,440 Climbing Chicago Center
06:38PM 42.1069 -90.3339 275° West 444 511 34,900 1,200 Climbing Chicago Center
06:39PM 42.1206 -90.4967 276° West 443 510 36,000 480 Climbing Chicago Center
06:40PM 42.1336 -90.6597 276° West 441 507 36,000  Level Chicago Center
06:41PM 42.1489 -90.8608 276° West 451 519 36,000  Level Chicago Center
06:42PM 42.1606 -91.0264 275° West 449 517 36,000  Level Chicago Center
06:43PM 42.1719 -91.1953 275° West 452 520 36,000  Level Chicago Center
06:44PM 42.1844 -91.3631 276° West 453 521 36,000 -60 Level Chicago Center
06:45PM 42.1969 -91.5306 276° West 452 520 35,900  Descending Chicago Center
06:47PM 42.2153 -91.8022 275° West 453 521 36,000  Climbing Minneapolis Center
06:47PM 42.2217 -91.9003 275° West 452 520 35,900  Descending Chicago Center
06:48PM 42.2322 -92.0697 275° West 454 522 36,000 60 Climbing Chicago Center
06:49PM 42.2403 -92.1750 276° West 456 525 36,000 -120 Level Minneapolis Center
06:50PM 42.2503 -92.3458 275° West 458 527 35,900  Descending Minneapolis Center
06:51PM 42.2617 -92.5186 275° West 462 532 36,000  Climbing Minneapolis Center
06:52PM 42.2714 -92.6906 274° West 463 533 35,900 -60 Descending Minneapolis Center
06:53PM 42.2808 -92.8586 274° West 455 524 35,900  Level Minneapolis Center
06:54PM 42.2928 -93.0617 275° West 456 525 36,000  Climbing Minneapolis Center
06:55PM 42.3031 -93.2347 275° West 465 535 35,900 -60 Descending Minneapolis Center
06:56PM 42.3117 -93.4056 274° West 464 534 35,900  Level Minneapolis Center
06:57PM 42.3208 -93.5761 274° West 460 529 35,900  Level Minneapolis Center
06:58PM 42.3303 -93.7475 274° West 461 531 35,900  Level Minneapolis Center
06:59PM 42.3389 -93.9511 273° West 458 527 35,900  Level Minneapolis Center
07:00PM 42.3486 -94.1208 274° West 459 528 35,900  Level Minneapolis Center
07:01PM 42.3567 -94.3053 273° West 453 521 35,900  Level Minneapolis Center
07:03PM 42.3722 -94.6417 274° West 449 517 36,000  Climbing Minneapolis Center
07:04PM 42.3794 -94.8089 273° West 447 514 35,900 -60 Descending Minneapolis Center
07:06PM 42.3939 -95.1783 273° West 449 517 35,900  Level Minneapolis Center
07:07PM 42.4003 -95.3789 273° West 447 514 35,900  Level Minneapolis Center
07:08PM 42.4056 -95.5478 272° West 450 518 35,900  Level Minneapolis Center
07:09PM 42.4111 -95.7158 273° West 449 517 35,900  Level Minneapolis Center
07:10PM 42.4164 -95.8831 273° West 447 514 35,900  Level Minneapolis Center
07:12PM 42.4219 -96.0506 273° West 448 516 35,900  Level Minneapolis Center
07:13PM 42.4275 -96.2508 272° West 447 514 35,900  Level Minneapolis Center
07:14PM 42.4322 -96.4192 272° West 448 516 35,900  Level Minneapolis Center
07:15PM 42.4372 -96.5853 272° West 445 512 35,900  Level Minneapolis Center
07:16PM 42.4411 -96.7508 272° West 444 511 35,900  Level Minneapolis Center
07:17PM 42.4444 -96.9178 272° West 445 512 35,900  Level Minneapolis Center
07:19PM 42.4504 -97.2036 271° West  Level FlightAware Approximate
07:19PM 42.4514 -97.2822 271° West 443 510 35,900  Level Minneapolis Center
07:20PM 42.4553 -97.4481 272° West 444 511 35,900  Level Minneapolis Center
07:21PM 42.4583 -97.6136 271° West 441 507 35,900  Level Minneapolis Center
07:22PM 42.4594 -97.7769 271° West 438 504 35,900  Level Minneapolis Center
07:23PM 42.4636 -97.9497 272° West 432 497 35,900  Level Minneapolis Center
07:24PM 42.4644 -98.1117 270° West 431 496 35,900  Level Minneapolis Center
07:25PM 42.4664 -98.2725 271° West 429 494 35,900  Level Minneapolis Center
07:26PM 42.4689 -98.4325 271° West 427 491 36,000  Climbing Minneapolis Center
07:27PM 42.4703 -98.6250 271° West 427 491 35,900 -60 Descending Minneapolis Center
07:28PM 42.4725 -98.7842 271° West 425 489 35,900  Level Minneapolis Center
07:29PM 42.4769 -98.9403 272° West 419 482 36,000  Climbing Minneapolis Center
07:30PM 42.4800 -99.0989 272° West 421 484 35,900 -60 Descending Minneapolis Center
07:31PM 42.4831 -99.2564 272° West 420 483 35,900  Level Minneapolis Center
07:33PM 42.4858 -99.4769 271° West 419 482 35,900  Level Denver Center
07:33PM 42.4881 -99.6319 271° West 416 479 35,900  Level Minneapolis Center
07:34PM 42.4906 -99.7872 271° West 415 478 36,000  Climbing Minneapolis Center
07:35PM 42.4922 -99.9436 271° West 416 479 35,900  Descending Minneapolis Center
07:36PM 42.4939 -100.1028 271° West 419 482 36,000  Climbing Minneapolis Center
07:37PM 42.4961 -100.2572 271° West 416 479 36,000 -60 Level Minneapolis Center
07:39PM 42.4983 -100.4578 271° West 417 480 35,900  Descending Denver Center
07:40PM 42.4992 -100.6081 270° West 417 480 36,000  Climbing Denver Center
07:41PM 42.5000 -100.7842 270° West 419 482 35,900 -60 Descending Denver Center
07:42PM 42.5003 -100.9311 270° West 412 474 35,900  Level Denver Center
07:43PM 42.5011 -101.1036 270° West 411 473 36,000  Climbing Denver Center
07:44PM 42.5022 -101.2486 271° West 406 467 36,000  Level Denver Center
07:45PM 42.5017 -101.4139 270° West 396 456 36,000  Level Denver Center
07:46PM 42.5019 -101.5567 270° West 396 456 36,000  Level Denver Center
07:47PM 42.5014 -101.7211 270° West 394 453 36,000  Level Denver Center
07:48PM 42.5000 -101.8572 269° West 394 453 36,000  Level Denver Center
07:49PM 42.5008 -102.0217 270° West 392 451 36,000  Level Denver Center
07:50PM 42.5036 -102.1628 272° West 393 452 36,000  Level Denver Center
07:51PM 42.5050 -102.3264 271° West 390 449 36,000  Level Denver Center
07:52PM 42.5078 -102.4664 272° West 388 447 36,000  Level Denver Center
07:53PM 42.5089 -102.6300 271° West 389 448 36,000  Level Denver Center
07:54PM 42.5111 -102.7681 271° West 383 441 36,000  Level Denver Center
07:55PM 42.5117 -102.9281 270° West 381 438 36,000  Level Denver Center
07:56PM 42.5128 -103.0664 271° West 383 441 36,000  Level Denver Center
07:57PM 42.5139 -103.2250 271° West 377 434 36,000  Level Denver Center
07:58PM 42.5153 -103.3611 271° West 377 434 36,000  Level Denver Center
07:59PM 42.5161 -103.5225 270° West 382 440 36,000  Level Denver Center
08:00PM 42.5169 -103.6592 271° West 379 436 36,000  Level Denver Center
08:01PM 42.5172 -103.7967 270° West 381 438 36,000  Level Denver Center
08:02PM 42.5169 -103.9606 270° West 388 447 36,000  Level Denver Center
08:04PM 42.5167 -104.0983 270° West 383 441 36,000  Level Denver Center
08:05PM 42.5167 -104.2617 270° West 387 445 36,000  Level Denver Center
08:06PM 42.5161 -104.4011 270° West 383 441 36,000  Level Denver Center
08:07PM 42.5144 -104.5669 269° West 386 444 36,000  Level Denver Center
08:08PM 42.5139 -104.7125 270° West 392 451 36,000  Level Denver Center
08:09PM 42.5139 -104.8525 270° West 388 447 36,000  Level Denver Center
08:10PM 42.5131 -105.0158 270° West 387 445 36,000  Level Denver Center
08:11PM 42.5114 -105.1533 269° West 381 438 36,000  Level Denver Center
08:12PM 42.5100 -105.3178 269° West 390 449 36,000  Level Denver Center
08:13PM 42.5078 -105.4572 269° West 386 444 36,000  Level Denver Center
08:14PM 42.5061 -105.5986 269° West 391 450 36,000  Level Denver Center
08:15PM 42.5031 -105.7647 269° West 395 455 36,000  Level Denver Center
08:16PM 42.5008 -105.9081 269° West 399 459 36,000  Level Denver Center
08:17PM 42.4958 -106.0744 268° West 397 457 36,000  Level Denver Center
08:18PM 42.4867 -106.2178 265° West 399 459 36,000  Level Denver Center
08:19PM 42.4764 -106.3856 265° West 400 460 36,000  Level Denver Center
08:20PM 42.4686 -106.5286 266° West 397 457 36,000  Level Denver Center
08:21PM 42.4581 -106.6956 265° West 399 459 36,000  Level Denver Center
08:22PM 42.4489 -106.8375 265° West 395 455 36,000  Level Denver Center
08:23PM 42.4394 -106.9900 265° West 398 458 36,000  Level Denver Center
08:24PM 42.4297 -107.1311 265° West 395 455 36,000  Level Denver Center
08:25PM 42.4189 -107.2950 265° West 393 452 36,000  Level Denver Center
08:26PM 42.4100 -107.4358 265° West 393 452 36,000  Level Denver Center
08:27PM 42.4050 -107.4836 262° West 394 453 36,000  Level Salt Lake Center
08:28PM 42.3942 -107.6494 265° West 397 457 36,000  Level Salt Lake Center
08:29PM 42.3842 -107.7911 265° West 398 458 36,000  Level Salt Lake Center
08:30PM 42.3722 -107.9569 264° West 399 459 36,000  Level Salt Lake Center
08:31PM 42.3614 -108.1017 264° West 404 465 36,000  Level Salt Lake Center
08:32PM 42.3489 -108.2694 264° West 403 464 36,000  Level Salt Lake Center
08:33PM 42.3369 -108.4119 264° West 401 461 36,000  Level Salt Lake Center
08:34PM 42.3253 -108.5781 265° West 400 460 36,000  Level Salt Lake Center
08:35PM 42.3136 -108.7192 264° West 397 457 36,000  Level Salt Lake Center
08:36PM 42.3017 -108.8600 264° West 395 455 36,000  Level Salt Lake Center
08:37PM 42.2878 -109.0242 264° West 395 455 36,000  Level Salt Lake Center
08:38PM 42.2758 -109.1628 263° West 391 450 36,000  Level Salt Lake Center
08:39PM 42.2614 -109.3275 263° West 396 456 36,000  Level Salt Lake Center
08:40PM 42.2497 -109.4692 264° West 398 458 36,000  Level Salt Lake Center
08:41PM 42.2347 -109.6347 263° West 399 459 36,000  Level Salt Lake Center
08:42PM 42.2231 -109.7764 264° West 399 459 36,000  Level Salt Lake Center
08:43PM 42.2075 -109.9397 263° West 396 456 36,000  Level Salt Lake Center
08:44PM 42.1936 -110.0806 262° West 397 457 36,000  Level Salt Lake Center
08:45PM 42.1819 -110.2242 264° West 401 461 36,000  Level Salt Lake Center
08:46PM 42.1658 -110.3953 263° West 411 473 36,000  Level Salt Lake Center
08:47PM 42.1511 -110.5394 262° West 408 470 36,000  Level Salt Lake Center
08:48PM 42.1350 -110.7044 263° West 401 461 36,000  Level Salt Lake Center
08:49PM 42.1208 -110.8456 262° West 397 457 36,000  Level Salt Lake Center
08:50PM 42.1047 -110.9997 262° West 396 456 36,000  Level Salt Lake Center
08:51PM 42.0897 -111.1428 262° West 390 449 36,000  Level Salt Lake Center
08:52PM 42.0756 -111.2869 263° West 391 450 36,000  Level Salt Lake Center
08:53PM 42.0608 -111.4319 262° West 393 452 36,000  Level Salt Lake Center
08:54PM 42.0453 -111.5769 262° West 393 452 36,000  Level Salt Lake Center
08:55PM 42.0267 -111.7511 262° West 394 453 36,000  Level Salt Lake Center
08:56PM 42.0106 -111.8967 262° West 396 456 36,000 -60 Level Salt Lake Center
08:57PM 41.9903 -112.0436 260° West 401 461 35,900  Descending Salt Lake Center
08:58PM 41.9572 -112.1808 252° West 393 452 36,000  Climbing Salt Lake Center
08:59PM 41.9253 -112.3208 253° West 393 452 36,000  Level Salt Lake Center
09:00PM 41.8917 -112.4614 252° West 395 455 36,000  Level Salt Lake Center
09:01PM 41.8578 -112.6025 252° West 399 459 36,000  Level Salt Lake Center
09:02PM 41.8192 -112.7683 253° West 393 452 36,000  Level Salt Lake Center
09:03PM 41.7853 -112.9078 252° West 394 453 36,000  Level Salt Lake Center
09:04PM 41.7519 -113.0475 252° West 395 455 36,000  Level Salt Lake Center
09:06PM 41.7200 -113.1878 253° West 397 457 36,000  Level Salt Lake Center
09:07PM 41.6864 -113.3297 252° West 403 464 36,000  Level Salt Lake Center
09:08PM 41.6503 -113.4747 252° West 412 474 36,000  Level Salt Lake Center
09:09PM 41.6147 -113.6186 252° West 410 472 36,000  Level Salt Lake Center
09:10PM 41.5725 -113.7914 252° West 409 471 36,000  Level Salt Lake Center
09:11PM 41.5369 -113.9344 252° West 408 470 36,000  Level Salt Lake Center
09:12PM 41.5006 -114.0792 251° West 412 474 36,000  Level Salt Lake Center
09:13PM 41.4647 -114.2228 252° West 410 472 36,000  Level Salt Lake Center
09:14PM 41.4281 -114.3658 251° West 408 470 36,000  Level Salt Lake Center
09:15PM 41.3928 -114.5078 252° West 406 467 36,000  Level Salt Lake Center
09:16PM 41.3561 -114.6494 251° West 406 467 36,000  Level Salt Lake Center
09:17PM 41.3133 -114.7883 248° West 406 467 36,000  Level Salt Lake Center
09:18PM 41.2672 -114.9472 249° West 404 465 36,000  Level Salt Lake Center
09:19PM 41.2286 -115.0803 249° West 403 464 36,000  Level Salt Lake Center
09:20PM 41.1819 -115.2336 248° West 401 461 36,000  Level Salt Lake Center
09:21PM 41.1433 -115.3661 249° West 401 461 36,000  Level Salt Lake Center
09:22PM 41.1036 -115.4964 248° West 400 460 36,000  Level Salt Lake Center
09:23PM 41.0581 -115.6503 249° West 402 463 36,000  Level Salt Lake Center
09:24PM 41.0181 -115.7819 248° West 402 463 36,000  Level Salt Lake Center
09:25PM 40.9714 -115.9350 248° West 401 461 36,000  Level Salt Lake Center
09:26PM 40.9314 -116.0669 248° West 404 465 36,000  Level Salt Lake Center
09:27PM 40.8906 -116.2000 248° West 406 467 36,000  Level Salt Lake Center
09:28PM 40.8414 -116.3575 248° West 414 476 36,000  Level Salt Lake Center
09:29PM 40.7997 -116.4908 248° West 413 475 36,000  Level Salt Lake Center
09:30PM 40.7522 -116.6478 248° West 414 476 36,000  Level Salt Lake Center
09:31PM 40.7106 -116.7806 248° West 412 474 36,000  Level Salt Lake Center
09:32PM 40.6608 -116.9344 247° West 412 474 36,000  Level Salt Lake Center
09:33PM 40.6197 -117.0661 248° West 411 473 36,000  Level Salt Lake Center
09:34PM 40.5703 -117.2192 247° West 411 473 36,000  Level Salt Lake Center
09:35PM 40.5283 -117.3506 247° West 410 472 36,000  Level Salt Lake Center
09:36PM 40.4858 -117.4811 247° West 408 470 36,000  Level Salt Lake Center
09:37PM 40.4369 -117.6339 247° West 407 468 36,000  Level Salt Lake Center
09:38PM 40.3939 -117.7642 247° West 407 468 36,000  Level Salt Lake Center
09:39PM 40.3456 -117.9172 248° West 410 472 36,000  Level Oakland Center
09:40PM 40.2939 -118.0736 247° West 408 470 36,000 -480 Level Oakland Center
09:41PM 40.2489 -118.2111 247° West 412 474 35,100 -2,160 Descending Oakland Center
09:42PM 40.2000 -118.3533 246° West 428 493 31,700 -2,580 Descending Oakland Center
09:43PM 40.1522 -118.4981 247° West 434 499 29,900 -1,320 Descending Oakland Center
09:45PM 40.1111 -118.6486 250° West 444 511 29,100 -2,100 Descending Oakland Center
09:46PM 40.0842 -118.7992 257° West 431 496 25,600 -3,240 Descending Oakland Center
09:47PM 40.0547 -118.9439 255° West 417 480 22,600 -2,580 Descending Oakland Center
09:48PM 40.0281 -119.0786 256° West 389 448 20,400 -3,000 Descending Oakland Center
09:49PM 39.9964 -119.2314 255° West 369 425 16,500 -2,580 Descending Oakland Center
09:50PM 39.9653 -119.3578 252° West 367 422 15,200 -1,680 Descending Oakland Center
09:51PM 39.9208 -119.4719 243° Southwest 358 412 13,100 -2,160 Descending Oakland Center
09:52PM 39.8778 -119.5819 243° Southwest 347 399 10,900 -1,740 Descending Oakland Center
09:53PM 39.8172 -119.6575 224° Southwest 310 357 9,600 -1,080 Descending Oakland Center
09:54PM 39.7597 -119.7131 217° Southwest 293 337 8,700 -900 Descending Oakland Center
09:56PM 39.6333 -119.7667 198° South 184 212 6,700 -900 Descending Northern Cal TRACON
09:57PM 39.5833 -119.7667 180° South 173 199 5,900 -900 Descending Northern Cal TRACON
09:58PM 39.5333 -119.7667 180° South 157 181 5,000 -900 Descending Northern Cal TRACON